Time;durP1;ratioP1;P1;durP2;ratioP2;P2;SDS_P1;SDS_P2;PMS_P1;PMS_P2;Temp;Humidity;BMP_temperature;BMP_pressure;BME280_temperature;BME280_humidity;BME280_pressure;Samples;Min_cycle;Max_cycle;Signal;HPM_P1;HPM_P2
2023/04/27 00:01:12;;;;;;;8.93;3.10;;;;;;;-145.18;100.00;46635.00;4930113;29;20108;-69
2023/04/27 00:03:38;;;;;;;5.27;2.90;;;;;;;-145.18;100.00;46633.06;4931510;29;20047;-69
2023/04/27 00:06:03;;;;;;;10.07;3.20;;;;;;;-145.18;100.00;46635.00;4931441;29;20647;-70
2023/04/27 00:08:29;;;;;;;8.23;3.33;;;;;;;-145.18;100.00;46635.00;4931269;29;20043;-70
2023/04/27 00:10:55;;;;;;;6.20;3.43;;;;;;;-145.18;100.00;46660.41;4931520;29;20047;-70
2023/04/27 00:13:21;;;;;;;7.53;3.30;;;;;;;-145.18;100.00;46625.22;4931428;29;20138;-70
2023/04/27 00:15:46;;;;;;;10.17;3.30;;;;;;;-145.18;100.00;46660.41;4931930;29;20832;-70
2023/04/27 00:18:12;;;;;;;6.53;3.17;;;;;;;-145.18;100.00;46660.41;4930739;29;20054;-70
2023/04/27 00:20:37;;;;;;;8.43;3.60;;;;;;;-145.18;100.00;46652.59;4930992;29;20039;-70
2023/04/27 00:23:03;;;;;;;8.97;3.50;;;;;;;-145.18;100.00;46660.41;4930617;29;20043;-70
2023/04/27 00:25:28;;;;;;;6.53;3.33;;;;;;;-145.18;100.00;46654.53;4931574;29;20039;-70
2023/04/27 00:27:53;;;;;;;5.03;2.97;;;;;;;-145.18;100.00;46640.88;4932329;29;20059;-70
2023/04/27 00:30:19;;;;;;;8.93;4.03;;;;;;;-145.18;100.00;46635.00;4935534;29;20492;-70
2023/04/27 00:32:44;;;;;;;8.03;4.20;;;;;;;-145.18;100.00;46638.91;4934643;29;20040;-70
2023/04/27 00:35:10;;;;;;;8.53;4.07;;;;;;;-145.18;100.00;46640.88;4934403;29;20044;-70
2023/04/27 00:37:35;;;;;;;8.00;3.80;;;;;;;-145.18;100.00;46631.09;4934951;29;20043;-70
2023/04/27 00:40:04;;;;;;;9.33;3.83;;;;;;;-145.18;100.00;46631.09;4935063;29;20039;-70
2023/04/27 00:42:29;;;;;;;8.20;3.97;;;;;;;-145.18;100.00;46635.00;4933311;29;20186;-70
2023/04/27 00:44:56;;;;;;;9.90;3.80;;;;;;;-145.18;100.00;46635.00;4934954;29;20842;-70
2023/04/27 00:47:22;;;;;;;7.57;4.30;;;;;;;-145.18;100.00;46633.06;4934689;29;20031;-70
2023/04/27 00:49:48;;;;;;;7.23;4.13;;;;;;;-145.18;100.00;46633.06;4934567;29;20353;-70
2023/04/27 00:52:13;;;;;;;14.03;4.60;;;;;;;-145.18;100.00;46635.00;4934406;29;20043;-70
2023/04/27 00:54:39;;;;;;;7.77;3.80;;;;;;;-145.18;100.00;46635.00;4934646;29;20302;-70
2023/04/27 00:57:04;;;;;;;11.33;3.73;;;;;;;-145.18;100.00;46635.00;4934120;29;20558;-70
2023/04/27 00:59:30;;;;;;;7.37;3.90;;;;;;;-145.18;100.00;46633.06;4934733;29;20052;-70
2023/04/27 01:01:55;;;;;;;5.63;3.60;;;;;;;-145.18;100.00;46636.94;4934659;29;20040;-70
2023/04/27 01:04:22;;;;;;;8.80;3.87;;;;;;;-145.18;100.00;46631.09;4934131;29;20047;-70
2023/04/27 01:06:47;;;;;;;12.87;3.97;;;;;;;-145.18;100.00;46633.06;4934298;29;20046;-69
2023/04/27 01:09:13;;;;;;;11.07;4.33;;;;;;;-145.18;100.00;46633.06;4934254;29;20301;-69
2023/04/27 01:11:38;;;;;;;6.43;3.57;;;;;;;-145.18;100.00;46635.00;4934155;29;20190;-70
2023/04/27 01:14:04;;;;;;;9.87;4.10;;;;;;;-145.18;100.00;46629.13;4933189;29;20202;-70
2023/04/27 01:16:34;;;;;;;10.63;4.23;;;;;;;-145.18;100.00;46633.06;4933826;29;20048;-70
2023/04/27 01:18:59;;;;;;;10.73;4.50;;;;;;;-145.18;100.00;46635.00;4933926;29;20290;-70
2023/04/27 01:21:26;;;;;;;12.10;4.13;;;;;;;-145.18;100.00;46633.06;4934221;29;20282;-70
2023/04/27 01:23:51;;;;;;;7.50;4.27;;;;;;;-145.18;100.00;46635.00;4933899;29;20181;-70
2023/04/27 01:26:17;;;;;;;9.93;4.23;;;;;;;-145.18;100.00;46636.94;4932672;29;20369;-70
2023/04/27 01:28:42;;;;;;;8.00;4.10;;;;;;;-145.18;100.00;46635.00;4933837;29;20088;-70
2023/04/27 01:31:10;;;;;;;10.43;4.43;;;;;;;-145.18;100.00;46633.06;4933912;29;20552;-70
2023/04/27 01:33:35;;;;;;;8.90;4.03;;;;;;;-145.18;100.00;46633.06;4931799;29;20114;-70
2023/04/27 01:36:01;;;;;;;9.70;4.23;;;;;;;-145.18;100.00;46633.06;4934046;29;20330;-70
2023/04/27 01:38:26;;;;;;;10.30;4.30;;;;;;;-145.18;100.00;46631.09;4933170;29;20044;-70
2023/04/27 01:40:54;;;;;;;13.30;5.23;;;;;;;-145.18;100.00;46631.09;4933902;29;20028;-70
2023/04/27 01:43:19;;;;;;;10.47;5.00;;;;;;;-145.18;100.00;46635.00;4933537;29;20036;-70
2023/04/27 01:45:45;;;;;;;11.53;4.53;;;;;;;-145.18;100.00;46633.06;4933801;29;20353;-70
2023/04/27 01:48:10;;;;;;;9.47;4.93;;;;;;;-145.18;100.00;46633.06;4933134;29;20496;-70
2023/04/27 01:50:36;;;;;;;9.30;5.33;;;;;;;-145.18;100.00;46638.91;4933535;29;20043;-70
2023/04/27 01:53:02;;;;;;;11.87;5.27;;;;;;;-145.18;100.00;46636.94;4916586;29;20032;-71
2023/04/27 01:55:28;;;;;;;9.90;5.50;;;;;;;-145.18;100.00;46640.88;4932939;29;20258;-70
2023/04/27 01:57:53;;;;;;;12.40;5.60;;;;;;;-145.18;100.00;46640.88;4916435;29;20636;-71
2023/04/27 02:03:03;;;;;;;13.17;6.50;;;;;;;-145.18;100.00;46642.81;5039474;23;20047;-71
2023/04/27 02:05:28;;;;;;;12.97;6.43;;;;;;;-145.18;100.00;46640.88;4950176;29;20292;-72
2023/04/27 02:07:54;;;;;;;11.37;6.27;;;;;;;-145.18;100.00;46640.88;4952860;29;20031;-72
2023/04/27 02:10:21;;;;;;;16.53;7.63;;;;;;;-145.18;100.00;46640.88;4953454;29;20039;-72
2023/04/27 02:12:47;;;;;;;12.00;6.53;;;;;;;-145.18;100.00;46642.81;4944570;29;20039;-71
2023/04/27 02:15:12;;;;;;;11.93;6.87;;;;;;;-145.18;100.00;46640.88;4939330;28;20278;-71
2023/04/27 02:17:38;;;;;;;15.23;6.00;;;;;;;-145.18;100.00;46640.88;4933790;29;20667;-71
2023/04/27 02:20:08;;;;;;;12.10;6.90;;;;;;;-145.18;100.00;46636.94;4936246;29;20393;-71
2023/04/27 02:22:34;;;;;;;15.83;6.47;;;;;;;-145.18;100.00;46635.00;4933606;29;20646;-71
2023/04/27 02:24:59;;;;;;;14.73;6.63;;;;;;;-145.18;100.00;46636.94;4933990;29;20271;-71
2023/04/27 02:27:25;;;;;;;15.13;5.67;;;;;;;-145.18;100.00;46635.00;4933677;29;20127;-72
2023/04/27 02:29:50;;;;;;;15.77;6.97;;;;;;;-145.18;100.00;46629.13;4933662;29;20071;-71
2023/04/27 02:32:15;;;;;;;17.87;6.67;;;;;;;-145.18;100.00;46635.00;4933946;29;20484;-72
2023/04/27 02:34:41;;;;;;;17.77;6.23;;;;;;;-145.18;100.00;46633.06;4933631;29;20055;-72
2023/04/27 02:37:06;;;;;;;16.23;6.43;;;;;;;-145.18;100.00;46631.09;4933602;29;20032;-72
2023/04/27 02:39:32;;;;;;;11.10;4.97;;;;;;;-145.18;100.00;46633.06;4916600;29;20067;-72
2023/04/27 02:41:57;;;;;;;10.33;5.50;;;;;;;-145.18;100.00;46636.94;4933581;29;20028;-72
2023/04/27 02:44:22;;;;;;;15.33;5.90;;;;;;;-145.18;100.00;46635.00;4933905;29;20043;-72
2023/04/27 02:46:49;;;;;;;13.17;5.30;;;;;;;-145.18;100.00;46638.91;4933268;29;20031;-72
2023/04/27 02:49:15;;;;;;;12.43;6.18;;;;;;;-145.18;100.00;46636.94;4933748;29;20039;-72
2023/04/27 02:51:41;;;;;;;11.33;5.37;;;;;;;-145.18;100.00;46640.88;4932839;29;20036;-72
2023/04/27 02:54:06;;;;;;;15.83;5.77;;;;;;;-145.18;100.00;46640.88;4948433;29;20833;-72
2023/04/27 02:56:31;;;;;;;13.87;4.70;;;;;;;-145.18;100.00;46650.63;4916250;29;20119;-72
2023/04/27 02:58:57;;;;;;;12.27;4.90;;;;;;;-145.18;100.00;46654.53;4933545;29;20039;-72
2023/04/27 03:01:22;;;;;;;12.37;6.03;;;;;;;-145.18;100.00;46656.50;4941326;29;20504;-72
2023/04/27 03:03:47;;;;;;;9.60;4.13;;;;;;;-145.18;100.00;46656.50;4952146;29;20082;-72
2023/04/27 03:06:13;;;;;;;11.37;5.43;;;;;;;-145.18;100.00;46652.59;4952327;29;20031;-72
2023/04/27 03:08:39;;;;;;;6.20;4.30;;;;;;;-145.18;100.00;46642.81;4952109;29;20500;-72
2023/04/27 03:11:05;;;;;;;8.98;5.05;;;;;;;-145.18;100.00;46636.94;4952074;29;20055;-72
2023/04/27 03:13:37;;;;;;;11.50;4.43;;;;;;;-145.18;100.00;46652.59;4952035;29;20488;-72
2023/04/27 03:16:02;;;;;;;14.48;4.75;;;;;;;-145.18;100.00;46652.59;4952477;29;20035;-72
2023/04/27 03:18:28;;;;;;;12.57;5.10;;;;;;;-145.18;100.00;46656.50;4952056;29;20400;-72
2023/04/27 03:20:53;;;;;;;11.20;4.27;;;;;;;-145.18;100.00;46658.44;4951921;29;20129;-72
2023/04/27 03:23:18;;;;;;;8.83;4.53;;;;;;;-145.18;100.00;46654.53;4952334;29;20503;-72
2023/04/27 03:25:44;;;;;;;10.10;4.80;;;;;;;-145.18;100.00;46658.44;4943034;29;20396;-72
2023/04/27 03:28:09;;;;;;;9.03;4.30;;;;;;;-145.18;100.00;46660.41;4932955;29;20027;-72
2023/04/27 03:30:37;;;;;;;9.00;4.87;;;;;;;-145.18;100.00;46660.41;4932957;29;20039;-72
2023/04/27 03:33:02;;;;;;;11.30;4.63;;;;;;;-145.18;100.00;46646.72;4932937;29;20619;-72
2023/04/27 03:35:28;;;;;;;10.67;4.93;;;;;;;-145.18;100.00;46656.50;4938740;29;20328;-72
2023/04/27 03:37:53;;;;;;;10.23;5.33;;;;;;;-145.18;100.00;46664.31;4951883;29;20031;-72
2023/04/27 03:40:19;;;;;;;11.10;4.63;;;;;;;-145.18;100.00;46676.03;4952164;29;20039;-72
2023/04/27 03:42:44;;;;;;;14.57;5.20;;;;;;;-145.18;100.00;46681.88;4951707;29;20031;-72
2023/04/27 03:45:11;;;;;;;7.83;4.53;;;;;;;-145.18;100.00;46687.75;4947555;29;20501;-72
2023/04/27 03:47:36;;;;;;;9.90;4.93;;;;;;;-145.18;100.00;46687.75;4932452;29;20140;-72
2023/04/27 03:50:01;;;;;;;10.03;5.17;;;;;;;-145.18;100.00;46693.59;4938568;29;20296;-72
2023/04/27 03:52:27;;;;;;;9.23;4.67;;;;;;;-145.18;100.00;46685.78;4934257;29;20070;-72
2023/04/27 03:54:52;;;;;;;10.93;4.60;;;;;;;-145.18;100.00;46689.69;4951940;29;20486;-72
2023/04/27 03:57:17;;;;;;;10.57;5.80;;;;;;;-145.18;100.00;46689.69;4951842;29;20097;-72
2023/04/27 03:59:43;;;;;;;10.10;4.77;;;;;;;-145.18;100.00;46681.88;4951716;29;20047;-72
2023/04/27 04:02:08;;;;;;;10.43;4.53;;;;;;;-145.18;100.00;46681.88;4935039;29;20063;-72
2023/04/27 04:04:33;;;;;;;10.07;4.47;;;;;;;-145.18;100.00;46679.94;4936585;29;20038;-72
2023/04/27 04:06:59;;;;;;;12.17;4.57;;;;;;;-145.18;100.00;46679.94;4936689;29;20039;-72
2023/04/27 04:09:24;;;;;;;9.13;4.80;;;;;;;-145.18;100.00;46650.63;4936449;29;20034;-72
2023/04/27 04:11:51;;;;;;;11.07;5.13;;;;;;;-145.18;100.00;46640.88;4940150;29;20408;-72
2023/04/27 04:14:16;;;;;;;8.68;4.53;;;;;;;-145.18;100.00;46660.41;4908575;29;20091;-72
2023/04/27 04:16:41;;;;;;;11.50;5.27;;;;;;;-145.18;100.00;46660.41;4936001;29;20028;-72
2023/04/27 04:19:07;;;;;;;10.47;5.03;;;;;;;-145.18;100.00;46660.41;4935655;29;20031;-72
2023/04/27 04:21:32;;;;;;;11.30;4.73;;;;;;;-145.18;100.00;46660.41;4932906;29;20036;-72
2023/04/27 04:23:58;;;;;;;9.80;5.00;;;;;;;-145.18;100.00;46638.91;4934179;29;20649;-72
2023/04/27 04:26:23;;;;;;;15.03;4.77;;;;;;;-145.18;100.00;46677.97;4932942;29;20744;-72
2023/04/27 04:28:49;;;;;;;9.50;4.33;;;;;;;-145.18;100.00;46648.69;4935094;29;20135;-72
2023/04/27 04:31:16;;;;;;;9.63;4.30;;;;;;;-145.18;100.00;46658.44;4935703;29;20031;-72
2023/04/27 04:33:41;;;;;;;13.82;5.20;;;;;;;-145.18;100.00;46658.44;4934921;29;20043;-72
2023/04/27 04:36:07;;;;;;;11.37;4.47;;;;;;;-145.18;100.00;46666.25;4935493;29;20393;-72
2023/04/27 04:38:32;;;;;;;10.83;4.80;;;;;;;-145.18;100.00;46656.50;4934881;29;20039;-72
2023/04/27 04:40:58;;;;;;;12.07;5.03;;;;;;;-145.18;100.00;46656.50;4935084;29;20046;-72
2023/04/27 04:43:23;;;;;;;13.13;4.97;;;;;;;-145.18;100.00;46658.44;4935077;29;20111;-72
2023/04/27 04:45:48;;;;;;;9.30;5.30;;;;;;;-145.18;100.00;46642.81;4932429;29;20035;-72
2023/04/27 04:48:15;;;;;;;9.70;5.03;;;;;;;-145.18;100.00;46635.00;4934355;29;20568;-72
2023/04/27 04:50:40;;;;;;;20.02;5.25;;;;;;;-145.18;100.00;46636.94;4916807;29;20441;-72
2023/04/27 04:53:06;;;;;;;12.20;4.33;;;;;;;-145.18;100.00;46633.06;4933951;29;20036;-72
2023/04/27 04:55:32;;;;;;;9.50;4.90;;;;;;;-145.18;100.00;46660.41;4934010;29;20045;-72
2023/04/27 04:57:57;;;;;;;10.50;5.20;;;;;;;-145.18;100.00;46660.41;4933895;29;20043;-72
2023/04/27 05:00:23;;;;;;;10.70;5.40;;;;;;;-145.18;100.00;46660.41;4953568;29;20035;-72
2023/04/27 05:02:48;;;;;;;14.13;6.07;;;;;;;-145.18;100.00;46631.09;4954214;29;20060;-72
2023/04/27 05:05:13;;;;;;;13.53;5.73;;;;;;;-145.18;100.00;46629.13;4954857;29;20087;-72
2023/04/27 05:07:39;;;;;;;8.40;5.03;;;;;;;-145.18;100.00;46631.09;4954148;29;20045;-72
2023/04/27 05:10:05;;;;;;;10.77;5.57;;;;;;;-145.18;100.00;46629.13;4954287;29;20081;-72
2023/04/27 05:12:30;;;;;;;16.83;5.17;;;;;;;-145.18;100.00;46627.19;4899206;29;20058;-72
2023/04/27 05:14:55;;;;;;;9.20;5.23;;;;;;;-145.18;100.00;46660.41;4922560;29;20047;-72
2023/04/27 05:17:21;;;;;;;12.67;4.83;;;;;;;-145.18;100.00;46658.44;4934722;29;20043;-73
2023/04/27 05:19:46;;;;;;;8.27;4.70;;;;;;;-145.18;100.00;46656.50;4934408;29;20099;-72
2023/04/27 05:22:11;;;;;;;8.37;4.73;;;;;;;-145.18;100.00;46650.63;4944853;29;20118;-73
2023/04/27 05:24:37;;;;;;;11.30;5.20;;;;;;;-145.18;100.00;46636.94;4948582;29;20035;-73
2023/04/27 05:27:02;;;;;;;10.63;5.07;;;;;;;-145.18;100.00;46635.00;4954347;29;20043;-73
2023/04/27 05:29:28;;;;;;;8.57;4.67;;;;;;;-145.18;100.00;46631.09;4938511;29;20077;-73
2023/04/27 05:31:53;;;;;;;10.80;5.40;;;;;;;-145.18;100.00;46593.97;4934851;29;20035;-72
2023/04/27 05:34:19;;;;;;;14.30;5.13;;;;;;;-145.18;100.00;46578.34;4934045;29;20087;-73
2023/04/27 05:36:46;;;;;;;10.97;5.00;;;;;;;-145.18;100.00;46578.34;4937054;29;20035;-73
2023/04/27 05:39:11;;;;;;;10.77;4.57;;;;;;;-145.18;100.00;46580.31;4933870;29;20048;-73
2023/04/27 05:41:37;;;;;;;10.80;4.83;;;;;;;-145.18;100.00;46574.44;4949582;29;20284;-73
2023/04/27 05:44:03;;;;;;;11.00;5.40;;;;;;;-145.18;100.00;46568.59;4920613;29;20067;-73
2023/04/27 05:46:28;;;;;;;9.70;5.83;;;;;;;-145.18;100.00;46572.50;4954050;29;20483;-73
2023/04/27 05:48:53;;;;;;;8.70;5.23;;;;;;;-145.18;100.00;46572.50;4953443;29;20027;-73
2023/04/27 05:51:19;;;;;;;9.57;5.27;;;;;;;-145.18;100.00;46568.59;4953790;29;20090;-73
2023/04/27 05:53:45;;;;;;;13.17;5.43;;;;;;;-145.18;100.00;46570.53;4953151;29;20609;-73
2023/04/27 05:56:10;;;;;;;15.43;5.67;;;;;;;-145.18;100.00;46572.50;4953531;29;20078;-73
2023/04/27 05:58:36;;;;;;;12.60;5.63;;;;;;;-145.18;100.00;46570.53;4953046;29;20035;-73
2023/04/27 06:01:02;;;;;;;13.23;5.87;;;;;;;-145.18;100.00;46572.50;4935113;29;20040;-73
2023/04/27 06:03:28;;;;;;;13.87;6.90;;;;;;;-145.18;100.00;46572.50;4930859;29;20098;-73
2023/04/27 06:05:55;;;;;;;16.70;7.27;;;;;;;-145.18;100.00;46568.59;4933721;29;20296;-73
2023/04/27 06:08:21;;;;;;;16.50;5.77;;;;;;;-145.18;100.00;46580.31;4933852;29;20370;-73
2023/04/27 06:10:46;;;;;;;11.13;5.50;;;;;;;-145.18;100.00;46590.06;4929783;29;20396;-73
2023/04/27 06:13:11;;;;;;;15.50;5.63;;;;;;;-145.18;100.00;46582.25;4935987;29;20070;-73
2023/04/27 06:15:37;;;;;;;8.13;4.40;;;;;;;-145.18;100.00;46593.97;4945912;29;20489;-73
2023/04/27 06:18:02;;;;;;;8.20;4.17;;;;;;;-145.18;100.00;46609.59;4931487;29;20507;-72
2023/04/27 06:20:28;;;;;;;10.23;3.90;;;;;;;-145.18;100.00;46621.31;4933119;29;20392;-73
2023/04/27 06:22:53;;;;;;;13.27;5.33;;;;;;;-145.18;100.00;46629.13;4932705;29;20042;-73
2023/04/27 06:25:18;;;;;;;10.70;3.50;;;;;;;-145.18;100.00;46638.91;4939245;28;20031;-73
2023/04/27 06:27:44;;;;;;;7.53;3.93;;;;;;;-145.18;100.00;46636.94;4942129;29;20095;-73
2023/04/27 06:30:10;;;;;;;8.00;4.03;;;;;;;-145.18;100.00;46652.59;4939633;29;20036;-73
2023/04/27 06:32:35;;;;;;;10.80;4.47;;;;;;;-145.18;100.00;46664.31;4940880;29;20032;-73
2023/04/27 06:35:01;;;;;;;9.20;4.43;;;;;;;-145.18;100.00;46677.97;4938804;29;20793;-73
2023/04/27 06:37:26;;;;;;;9.17;3.70;;;;;;;-145.18;100.00;46672.13;4944832;29;20102;-73
2023/04/27 06:39:52;;;;;;;6.23;3.77;;;;;;;-145.18;100.00;46683.84;4916174;29;20066;-73
2023/04/27 06:42:17;;;;;;;11.43;3.90;;;;;;;-145.18;100.00;46703.38;4932395;29;20039;-73
2023/04/27 06:44:42;;;;;;;6.90;3.63;;;;;;;-145.18;100.00;46713.13;4934179;29;20083;-73
2023/04/27 06:47:08;;;;;;;7.70;4.00;;;;;;;-145.18;100.00;46740.47;4948041;29;20105;-73
2023/04/27 06:49:33;;;;;;;8.67;4.00;;;;;;;-145.18;100.00;46742.44;4932692;29;20032;-73
2023/04/27 06:52:01;;;;;;;11.37;3.93;;;;;;;-145.18;100.00;46777.59;4932940;29;20035;-73
2023/04/27 06:54:27;;;;;;;8.60;3.80;;;;;;;-145.18;100.00;46779.56;4938799;29;20480;-73
2023/04/27 06:56:53;;;;;;;8.03;3.60;;;;;;;-145.18;100.00;46791.28;4936269;29;20285;-73
2023/04/27 06:59:19;;;;;;;8.53;3.27;;;;;;;-145.18;100.00;46781.50;4924576;29;20496;-73
2023/04/27 07:01:45;;;;;;;6.73;3.27;;;;;;;-145.18;100.00;46822.53;4915363;29;20318;-73
2023/04/27 07:04:10;;;;;;;10.90;4.27;;;;;;;-145.18;100.00;46845.97;4931892;29;20043;-73
2023/04/27 07:06:36;;;;;;;8.27;3.33;;;;;;;-145.18;100.00;46851.81;4931935;29;20052;-73
2023/04/27 07:09:04;;;;;;;5.57;3.63;;;;;;;-145.18;100.00;46840.09;4914809;29;20047;-73
2023/04/27 07:11:30;;;;;;;7.97;3.97;;;;;;;-145.18;100.00;46861.59;4932721;29;20086;-73
2023/04/27 07:13:55;;;;;;;8.53;3.80;;;;;;;-145.18;100.00;46869.41;4931367;29;20282;-73
2023/04/27 07:16:21;;;;;;;7.50;3.70;;;;;;;-145.18;100.00;46896.75;4947088;29;20061;-73
2023/04/27 07:18:46;;;;;;;7.93;3.17;;;;;;;-145.18;100.00;46902.63;4940267;29;20127;-73
2023/04/27 07:21:12;;;;;;;8.77;3.67;;;;;;;-145.18;100.00;46883.09;4933009;29;20032;-73
2023/04/27 07:23:40;;;;;;;7.23;4.00;;;;;;;-145.18;100.00;46875.28;4932670;29;20036;-73
2023/04/27 07:26:06;;;;;;;5.00;3.47;;;;;;;-145.18;100.00;46908.47;4944384;29;20039;-73
2023/04/27 07:28:31;;;;;;;7.27;3.67;;;;;;;-145.18;100.00;46887.00;4948661;29;20281;-73
2023/04/27 07:30:57;;;;;;;7.20;3.80;;;;;;;-145.18;100.00;46896.75;4932842;29;20289;-73
2023/04/27 07:33:22;;;;;;;6.43;3.67;;;;;;;-145.18;100.00;46914.34;4932445;29;20039;-73
2023/04/27 07:35:49;;;;;;;7.43;3.70;;;;;;;-145.18;100.00;46943.63;4929474;29;20032;-73
2023/04/27 07:38:16;;;;;;;8.70;3.83;;;;;;;-145.18;100.00;47012.00;4926528;29;20055;-73
2023/04/27 07:40:41;;;;;;;6.47;3.80;;;;;;;-145.18;100.00;47125.31;4931865;29;20361;-73
2023/04/27 07:43:08;;;;;;;8.30;4.43;;;;;;;-145.18;100.00;47379.28;4932473;29;20710;-73
2023/04/27 07:45:37;;;;;;;7.90;3.67;;;;;;;-145.18;100.00;47439.84;4932544;29;20501;-74
2023/04/27 07:48:03;;;;;;;9.33;3.90;;;;;;;-145.18;100.00;47465.25;4936676;29;20293;-73
2023/04/27 07:50:30;;;;;;;6.93;3.80;;;;;;;-145.18;100.00;47549.25;4932713;29;20305;-73
2023/04/27 07:52:56;;;;;;;8.57;4.07;;;;;;;-145.18;100.00;47576.63;4932434;29;20407;-73
2023/04/27 07:55:22;;;;;;;8.00;3.93;;;;;;;-145.18;100.00;47578.56;4932880;29;20270;-73
2023/04/27 07:57:56;;;;;;;11.37;3.77;;;;;;;-145.18;100.00;47553.16;4935160;29;20594;-73
2023/04/27 08:00:24;;;;;;;10.20;4.00;;;;;;;-145.18;100.00;47541.44;4945748;29;20277;-72
2023/04/27 08:02:53;;;;;;;8.80;3.60;;;;;;;-145.18;100.00;47580.53;4950083;29;20339;-73
2023/04/27 08:05:18;;;;;;;7.00;4.03;;;;;;;-145.18;100.00;47559.03;4950429;29;20316;-73
2023/04/27 08:07:44;;;;;;;7.70;4.00;;;;;;;-145.18;100.00;47557.06;4949754;29;20277;-73
2023/04/27 08:10:10;;;;;;;8.07;4.10;;;;;;;-145.18;100.00;47555.13;4933221;29;20039;-73
2023/04/27 08:12:35;;;;;;;9.70;4.03;;;;;;;-145.18;100.00;47551.22;4951224;29;20065;-73
2023/04/27 08:15:00;;;;;;;12.57;3.80;;;;;;;-145.18;100.00;47516.06;4951913;29;20082;-73
2023/04/27 08:17:26;;;;;;;8.37;4.13;;;;;;;-145.18;100.00;47508.22;4938597;29;20040;-73
2023/04/27 08:19:51;;;;;;;8.77;2.93;;;;;;;-145.18;100.00;47500.41;4932150;29;20054;-73
2023/04/27 08:22:17;;;;;;;9.63;3.73;;;;;;;-145.18;100.00;47484.78;4932497;29;20056;-73
2023/04/27 08:24:42;;;;;;;7.17;3.57;;;;;;;-145.18;100.00;47476.97;4932200;29;20044;-73
2023/04/27 08:27:08;;;;;;;7.10;3.60;;;;;;;-145.18;100.00;47476.97;4932657;29;20528;-73
2023/04/27 08:29:33;;;;;;;7.53;3.77;;;;;;;-145.18;100.00;47478.94;4938140;29;20070;-73
2023/04/27 08:32:01;;;;;;;8.20;3.87;;;;;;;-145.18;100.00;47476.97;4951969;29;20027;-73
2023/04/27 08:34:27;;;;;;;8.20;3.00;;;;;;;-145.18;100.00;47467.22;4951156;29;20077;-73
2023/04/27 08:36:55;;;;;;;5.00;3.37;;;;;;;-145.18;100.00;47459.41;4951295;29;20269;-73
2023/04/27 08:39:22;;;;;;;7.83;3.83;;;;;;;-145.18;100.00;47453.53;4951269;29;20369;-73
2023/04/27 08:41:47;;;;;;;7.03;3.10;;;;;;;-145.18;100.00;47447.66;4951404;29;20308;-72
2023/04/27 08:44:13;;;;;;;5.07;3.00;;;;;;;-145.18;100.00;47455.47;4951450;29;20266;-73
2023/04/27 08:46:38;;;;;;;8.10;3.40;;;;;;;-145.18;100.00;47435.94;4933870;29;20032;-73
2023/04/27 08:49:05;;;;;;;6.30;3.23;;;;;;;-145.18;100.00;47420.31;4952595;28;20045;-73
2023/04/27 08:51:31;;;;;;;5.77;3.17;;;;;;;-145.18;100.00;47418.38;4954930;29;20038;-72
2023/04/27 08:53:57;;;;;;;4.30;2.50;;;;;;;-145.18;100.00;47432.03;4954406;29;20635;-72
2023/04/27 08:56:25;;;;;;;6.00;2.87;;;;;;;-145.18;100.00;47410.56;4955112;29;20265;-72
2023/04/27 08:58:51;;;;;;;5.73;2.63;;;;;;;-145.18;100.00;47412.50;4954561;29;20031;-72
2023/04/27 09:01:17;;;;;;;5.00;2.80;;;;;;;-145.18;100.00;47422.28;4950315;29;20858;-72
2023/04/27 09:03:45;;;;;;;7.13;2.93;;;;;;;-145.18;100.00;47398.81;4951021;29;20460;-72
2023/04/27 09:06:11;;;;;;;7.57;3.37;;;;;;;-145.18;100.00;47424.22;4936537;29;20508;-73
2023/04/27 09:08:45;;;;;;;8.90;4.07;;;;;;;-145.18;100.00;47402.72;4935078;29;20827;-73
2023/04/27 09:11:12;;;;;;;5.30;3.50;;;;;;;-145.18;100.00;47418.38;4918603;29;20369;-72
2023/04/27 09:13:39;;;;;;;10.23;3.30;;;;;;;-145.18;100.00;47412.50;4941846;29;20484;-72
2023/04/27 09:16:05;;;;;;;5.83;3.17;;;;;;;-145.18;100.00;47392.97;4954423;29;20643;-73
2023/04/27 09:18:34;;;;;;;7.13;3.27;;;;;;;-145.18;100.00;47402.72;4954051;29;20078;-72
2023/04/27 09:21:00;;;;;;;10.00;3.43;;;;;;;-145.18;100.00;47406.63;4952789;29;20106;-72
2023/04/27 09:23:26;;;;;;;5.47;2.70;;;;;;;-145.18;100.00;47402.72;4951912;29;20449;-72
2023/04/27 09:25:52;;;;;;;5.87;3.27;;;;;;;-145.18;100.00;47375.38;4950534;29;20038;-72
2023/04/27 09:28:17;;;;;;;5.80;3.37;;;;;;;-145.18;100.00;47373.44;4935135;29;20047;-72
2023/04/27 09:30:52;;;;;;;6.07;3.83;;;;;;;-145.18;100.00;47383.19;4939448;29;20070;-72
2023/04/27 09:33:26;;;;;;;7.30;3.80;;;;;;;-145.18;100.00;47383.19;4953953;29;20031;-72
2023/04/27 09:35:52;;;;;;;7.03;2.80;;;;;;;-145.18;100.00;47385.16;4954195;29;20257;-73
2023/04/27 09:38:18;;;;;;;4.90;3.50;;;;;;;-145.18;100.00;47367.56;4954017;29;20039;-72
2023/04/27 09:40:44;;;;;;;5.20;3.10;;;;;;;-145.18;100.00;47363.66;4953675;29;20265;-73
2023/04/27 09:43:10;;;;;;;7.40;3.60;;;;;;;-145.18;100.00;47342.16;4953799;29;20093;-72
2023/04/27 09:45:37;;;;;;;4.93;2.73;;;;;;;-145.18;100.00;47344.13;4953744;29;20023;-72
2023/04/27 09:48:04;;;;;;;7.40;3.23;;;;;;;-145.18;100.00;47361.72;4953745;29;20031;-72
2023/04/27 09:50:33;;;;;;;6.37;2.97;;;;;;;-145.18;100.00;47334.34;4953879;29;20539;-72
2023/04/27 09:52:59;;;;;;;5.87;3.80;;;;;;;-145.18;100.00;47349.97;4948611;29;20039;-72
2023/04/27 09:55:30;;;;;;;8.67;3.23;;;;;;;-145.18;100.00;47381.25;4934675;29;20032;-72
2023/04/27 09:58:13;;;;;;;4.77;3.37;;;;;;;-145.18;100.00;47357.78;4940326;29;20114;-72
2023/04/27 10:00:46;;;;;;;5.27;2.90;;;;;;;-145.18;100.00;47340.22;4953083;28;20027;-72
2023/04/27 10:03:59;;;;;;;6.00;3.30;;;;;;;-145.18;100.00;47379.28;4953316;29;20055;-72
2023/04/27 10:06:33;;;;;;;7.20;3.93;;;;;;;-145.18;100.00;47357.78;4875006;29;20045;-72
2023/04/27 10:09:03;;;;;;;5.20;3.50;;;;;;;-145.18;100.00;47353.88;4875251;29;20131;-72
2023/04/27 10:11:42;;;;;;;5.53;3.23;;;;;;;-145.18;100.00;47346.06;4922650;29;20512;-72
2023/04/27 10:14:15;;;;;;;6.27;2.97;;;;;;;-145.18;100.00;47328.50;4953168;29;20035;-72
2023/04/27 10:16:45;;;;;;;5.00;3.37;;;;;;;-145.18;100.00;47332.41;4953312;29;20484;-72
2023/04/27 10:19:11;;;;;;;4.57;3.30;;;;;;;-145.18;100.00;47328.50;4952920;29;20043;-72
2023/04/27 10:21:37;;;;;;;5.73;3.27;;;;;;;-145.18;100.00;47320.69;4952911;29;20042;-70
2023/04/27 10:24:10;;;;;;;6.73;3.23;;;;;;;-145.18;100.00;47297.22;4953137;29;20559;-70
2023/04/27 10:26:35;;;;;;;5.83;3.80;;;;;;;-145.18;100.00;47310.91;4952911;29;20051;-70
2023/04/27 10:29:08;;;;;;;5.50;3.40;;;;;;;-145.18;100.00;47307.00;4953121;29;20039;-70
2023/04/27 10:31:33;;;;;;;8.00;3.67;;;;;;;-145.18;100.00;47289.41;4946247;29;20129;-70
2023/04/27 10:34:07;;;;;;;6.07;3.20;;;;;;;-145.18;100.00;47291.38;4952685;29;20059;-70
2023/04/27 10:36:39;;;;;;;7.53;3.90;;;;;;;-145.18;100.00;47301.16;4952945;29;20027;-72
2023/04/27 10:39:15;;;;;;;6.23;4.00;;;;;;;-145.18;100.00;47305.06;4952940;29;20043;-71
2023/04/27 10:41:49;;;;;;;7.88;4.82;;;;;;;-145.18;100.00;47291.38;4948933;29;20031;-72
2023/04/27 10:44:26;;;;;;;8.13;4.32;;;;;;;-145.18;100.00;47293.31;4933573;29;20036;-72
2023/04/27 10:46:56;;;;;;;4.83;3.47;;;;;;;-145.18;100.00;47295.28;4933316;29;20541;-71
2023/04/27 10:49:22;;;;;;;5.83;3.23;;;;;;;-145.18;100.00;47260.13;4926547;29;20650;-69
2023/04/27 10:51:50;;;;;;;8.03;4.03;;;;;;;-145.18;100.00;47297.22;4929927;29;20085;-70
2023/04/27 10:54:15;;;;;;;7.23;4.07;;;;;;;-145.18;100.00;47301.16;4930229;29;20453;-71
2023/04/27 10:56:41;;;;;;;10.67;4.33;;;;;;;-145.18;100.00;47287.47;4933180;29;20039;-71
2023/04/27 10:59:07;;;;;;;7.40;4.57;;;;;;;-145.18;100.00;47318.72;4932433;29;20036;-71
2023/04/27 11:01:33;;;;;;;5.60;4.20;;;;;;;-145.18;100.00;47310.91;4932717;29;20027;-71
2023/04/27 11:04:00;;;;;;;7.10;4.67;;;;;;;-145.18;100.00;47299.19;4925028;29;20048;-71
2023/04/27 11:06:27;;;;;;;7.77;4.63;;;;;;;-145.18;100.00;47295.28;4932907;29;20078;-71